Time;durP1;ratioP1;P1;durP2;ratioP2;P2;SDS_P1;SDS_P2;PMS_P1;PMS_P2;Temp;Humidity;BMP_temperature;BMP_pressure;BME280_temperature;BME280_humidity;BME280_pressure;Samples;Min_cycle;Max_cycle;Signal;HPM_P1;HPM_P2
2021/09/30 00:00:33;;;;;;;8.77;2.15;;;9.30;99.90;;;;;;4990497;28;20563;-61
2021/09/30 00:02:59;;;;;;;9.35;1.90;;;9.30;99.90;;;;;;4991585;28;20535;-60
2021/09/30 00:05:25;;;;;;;6.10;1.80;;;9.20;99.90;;;;;;4990471;28;20472;-62
2021/09/30 00:07:51;;;;;;;10.30;2.13;;;9.10;99.90;;;;;;4991545;28;20026;-59
2021/09/30 00:10:20;;;;;;;10.15;1.90;;;8.90;99.90;;;;;;4990595;28;20077;-61
2021/09/30 00:12:51;;;;;;;11.07;2.25;;;8.90;99.90;;;;;;4991424;28;20030;-60
2021/09/30 00:34:44;;;;;;;12.35;1.80;;;8.70;99.90;;;;;;4990597;28;20058;-61
2021/09/30 00:40:13;;;;;;;6.75;1.60;;;8.60;99.90;;;;;;4990176;28;20034;-60
2021/09/30 00:53:56;;;;;;;9.45;1.52;;;8.40;99.90;;;;;;4994825;28;20096;-60
2021/09/30 02:19:43;;;;;;;8.60;2.00;;;7.80;99.90;;;;;;4992933;28;20084;-60
2021/09/30 02:25:11;;;;;;;13.65;2.67;;;8.00;99.90;;;;;;4979906;28;20030;-60
2021/09/30 03:00:54;;;;;;;17.05;3.65;;;8.00;99.90;;;;;;4991376;28;20100;-59
2021/09/30 03:03:21;;;;;;;14.07;3.33;;;8.00;99.90;;;;;;4991705;28;20117;-59
2021/09/30 03:05:53;;;;;;;13.40;3.70;;;8.00;99.90;;;;;;4991335;28;20166;-60
2021/09/30 03:08:30;;;;;;;13.55;3.50;;;8.00;99.90;;;;;;4992232;28;20105;-59
2021/09/30 03:11:00;;;;;;;16.00;3.72;;;8.00;99.90;;;;;;4991139;28;20069;-61
2021/09/30 03:13:28;;;;;;;11.68;3.60;;;8.00;99.90;;;;;;4991987;28;20477;-60
2021/09/30 03:15:59;;;;;;;14.85;3.33;;;7.90;99.90;;;;;;4990756;28;20490;-60
2021/09/30 03:18:51;;;;;;;9.90;3.40;;;7.90;99.90;;;;;;4992007;28;20031;-59
2021/09/30 03:23:47;;;;;;;11.40;3.20;;;8.00;99.90;;;;;;4992009;28;20042;-58
2021/09/30 03:26:18;;;;;;;8.70;3.50;;;8.10;99.90;;;;;;4991105;28;20038;-60
2021/09/30 03:28:45;;;;;;;11.82;2.92;;;8.10;99.90;;;;;;4991596;28;20109;-58
2021/09/30 03:31:11;;;;;;;10.73;3.08;;;8.10;99.90;;;;;;4990724;28;20562;-62
2021/09/30 03:33:37;;;;;;;15.38;3.55;;;8.00;99.90;;;;;;4991613;28;20109;-59
2021/09/30 03:36:03;;;;;;;12.73;3.20;;;8.10;99.90;;;;;;4990778;28;20034;-58
2021/09/30 03:38:29;;;;;;;10.52;3.17;;;8.20;99.90;;;;;;4991699;28;20038;-60
2021/09/30 03:40:55;;;;;;;13.80;3.75;;;8.20;99.90;;;;;;4991029;28;20084;-61
2021/09/30 03:43:20;;;;;;;12.85;3.20;;;8.30;99.90;;;;;;4991470;28;20497;-60
2021/09/30 03:45:46;;;;;;;10.82;3.13;;;8.30;99.90;;;;;;4990877;28;20042;-59
2021/09/30 03:48:12;;;;;;;13.10;3.28;;;8.20;99.90;;;;;;4991392;28;20089;-60
2021/09/30 04:01:28;;;;;;;11.77;2.85;;;8.20;99.90;;;;;;4990601;28;20523;-60
2021/09/30 04:03:53;;;;;;;13.32;2.72;;;8.30;99.90;;;;;;4991271;28;20026;-58
2021/09/30 04:06:20;;;;;;;12.43;2.63;;;8.30;99.90;;;;;;4990708;28;20157;-60
2021/09/30 04:08:46;;;;;;;7.35;2.30;;;8.40;99.90;;;;;;4990065;28;20031;-60
2021/09/30 04:11:12;;;;;;;14.80;2.80;;;8.30;99.90;;;;;;4989459;28;20129;-60
2021/09/30 04:13:37;;;;;;;14.30;2.50;;;8.40;99.90;;;;;;4991422;28;20027;-61
2021/09/30 04:16:03;;;;;;;10.10;2.50;;;8.40;99.90;;;;;;4992249;28;20057;-59
2021/09/30 04:18:29;;;;;;;9.93;2.42;;;8.40;99.90;;;;;;4994994;28;20398;-61
2021/09/30 04:20:55;;;;;;;7.88;2.10;;;8.50;99.90;;;;;;4994254;28;20034;-59
2021/09/30 04:23:21;;;;;;;10.68;2.65;;;8.60;99.90;;;;;;4994779;28;20473;-59
2021/09/30 04:25:48;;;;;;;12.25;2.40;;;8.60;99.90;;;;;;4994648;28;20030;-59
2021/09/30 04:28:14;;;;;;;7.22;2.10;;;8.60;99.90;;;;;;4994296;28;20026;-59
2021/09/30 04:30:41;;;;;;;10.48;2.58;;;8.60;99.90;;;;;;4994637;28;20050;-58
2021/09/30 04:33:06;;;;;;;12.05;2.42;;;8.70;99.90;;;;;;4993861;28;20485;-59
2021/09/30 04:35:33;;;;;;;18.40;2.80;;;8.60;99.90;;;;;;4994783;28;20037;-59
2021/09/30 04:37:58;;;;;;;14.60;2.40;;;8.70;99.90;;;;;;4992696;28;20032;-59
2021/09/30 04:40:24;;;;;;;6.63;2.25;;;8.70;99.90;;;;;;4994759;28;20035;-59
2021/09/30 04:42:50;;;;;;;9.68;2.00;;;8.60;99.90;;;;;;4993666;28;20177;-58
2021/09/30 04:45:16;;;;;;;9.90;2.10;;;8.60;99.90;;;;;;4994652;28;20050;-59
2021/09/30 04:47:41;;;;;;;9.18;1.83;;;8.70;99.90;;;;;;4993776;28;20141;-59
2021/09/30 04:50:08;;;;;;;8.90;2.65;;;8.60;99.90;;;;;;4994499;28;20018;-58
2021/09/30 04:52:33;;;;;;;7.85;2.28;;;8.70;99.90;;;;;;4993238;28;20601;-60
2021/09/30 04:54:59;;;;;;;12.40;2.47;;;8.60;99.90;;;;;;4994380;28;20117;-59
2021/09/30 04:57:25;;;;;;;11.73;2.15;;;8.60;99.90;;;;;;4993440;28;20374;-60
2021/09/30 04:59:50;;;;;;;7.22;2.17;;;8.60;99.90;;;;;;4994307;28;20058;-60
2021/09/30 05:02:16;;;;;;;10.80;1.98;;;8.60;99.90;;;;;;4993459;28;20054;-60
2021/09/30 05:04:42;;;;;;;11.80;2.10;;;8.60;99.90;;;;;;4994476;28;20026;-58
2021/09/30 05:07:07;;;;;;;10.65;3.08;;;8.70;99.90;;;;;;4993301;28;20117;-59
2021/09/30 05:09:33;;;;;;;10.23;2.47;;;8.70;99.90;;;;;;4994250;28;20546;-60
2021/09/30 05:12:02;;;;;;;7.10;1.98;;;8.80;99.90;;;;;;4993174;28;20070;-62
2021/09/30 05:14:28;;;;;;;11.75;2.28;;;8.80;99.90;;;;;;5003392;28;20365;-58
2021/09/30 05:16:54;;;;;;;10.32;2.30;;;8.80;99.90;;;;;;4997739;28;20049;-59
2021/09/30 05:19:20;;;;;;;10.38;2.17;;;8.80;99.90;;;;;;4994271;28;20373;-61
2021/09/30 05:21:47;;;;;;;9.70;2.30;;;8.80;99.90;;;;;;4992965;28;20048;-59
2021/09/30 05:24:12;;;;;;;14.52;2.83;;;8.90;99.90;;;;;;4994024;28;20026;-59
2021/09/30 05:26:38;;;;;;;15.25;2.40;;;8.90;99.90;;;;;;4992940;28;20054;-60
2021/09/30 05:29:06;;;;;;;9.30;3.00;;;9.00;99.90;;;;;;4993682;28;20030;-60
2021/09/30 05:31:32;;;;;;;8.45;2.17;;;8.80;99.90;;;;;;4992971;28;20050;-59
2021/09/30 05:33:58;;;;;;;14.75;2.63;;;8.90;99.90;;;;;;4993461;28;20081;-60
2021/09/30 05:36:24;;;;;;;13.85;2.50;;;8.90;99.90;;;;;;4993125;28;20041;-59
2021/09/30 05:38:52;;;;;;;10.48;2.75;;;8.90;99.90;;;;;;4993346;28;20035;-60
2021/09/30 05:41:17;;;;;;;11.40;2.47;;;8.90;99.90;;;;;;4993286;28;20044;-58
2021/09/30 05:43:50;;;;;;;13.80;2.40;;;8.90;99.90;;;;;;4992970;28;20034;-60
2021/09/30 05:46:18;;;;;;;10.20;2.22;;;8.90;99.90;;;;;;4993363;28;20467;-58
2021/09/30 05:48:43;;;;;;;10.18;1.90;;;9.00;99.90;;;;;;4992825;28;20685;-59
2021/09/30 05:51:10;;;;;;;7.85;2.17;;;9.10;99.90;;;;;;4993470;28;20054;-60
2021/09/30 05:53:36;;;;;;;10.48;2.45;;;9.00;99.90;;;;;;4991150;28;20373;-59
2021/09/30 05:56:02;;;;;;;17.13;3.83;;;9.00;99.90;;;;;;4993532;28;20033;-60
2021/09/30 05:58:28;;;;;;;8.27;2.22;;;9.10;99.90;;;;;;4992375;28;20037;-58
2021/09/30 06:01:07;;;;;;;10.43;2.30;;;9.10;99.90;;;;;;4993301;28;20018;-59
2021/09/30 06:14:20;;;;;;;10.93;3.42;;;9.10;99.90;;;;;;4980729;28;20045;-58
2021/09/30 06:16:48;;;;;;;12.60;2.05;;;9.10;99.90;;;;;;4992023;28;20038;-60
2021/09/30 06:19:20;;;;;;;14.43;2.30;;;9.20;99.90;;;;;;4992870;28;20030;-60
2021/09/30 06:21:47;;;;;;;12.65;2.60;;;9.30;99.90;;;;;;4992597;28;20030;-60
2021/09/30 06:24:13;;;;;;;11.63;2.75;;;9.40;99.90;;;;;;4992367;28;20114;-60
2021/09/30 06:26:39;;;;;;;8.82;2.67;;;9.40;99.90;;;;;;4992569;28;20073;-57
2021/09/30 06:29:04;;;;;;;12.73;2.30;;;9.40;99.90;;;;;;4991969;28;20038;-62
2021/09/30 06:31:30;;;;;;;11.77;2.92;;;9.40;99.90;;;;;;4992701;28;20054;-59
2021/09/30 06:33:56;;;;;;;11.20;2.67;;;9.40;99.90;;;;;;4991758;28;20031;-59
2021/09/30 06:36:22;;;;;;;14.43;2.80;;;9.40;99.90;;;;;;4992443;28;20045;-58
2021/09/30 06:38:47;;;;;;;9.70;2.22;;;9.50;99.90;;;;;;4990798;28;20030;-59
2021/09/30 06:41:13;;;;;;;10.25;2.63;;;9.50;99.90;;;;;;4990968;28;20046;-60
2021/09/30 06:43:39;;;;;;;12.77;2.80;;;9.50;99.90;;;;;;4991467;28;20077;-60
2021/09/30 06:46:04;;;;;;;14.85;2.60;;;9.50;99.90;;;;;;4992097;28;20037;-59
2021/09/30 06:48:30;;;;;;;11.93;3.15;;;9.60;99.90;;;;;;4991269;28;20365;-58
2021/09/30 06:50:55;;;;;;;14.15;2.97;;;9.70;99.90;;;;;;4991172;28;20054;-58
2021/09/30 06:53:22;;;;;;;10.13;2.13;;;9.70;99.90;;;;;;4991400;28;20034;-59
2021/09/30 06:55:48;;;;;;;19.80;3.58;;;9.70;99.90;;;;;;4992454;28;20035;-58
2021/09/30 06:58:14;;;;;;;15.45;3.22;;;9.80;99.90;;;;;;4988428;28;20436;-58
2021/09/30 07:00:41;;;;;;;13.65;2.85;;;9.70;99.90;;;;;;4991999;28;20030;-61
2021/09/30 07:03:08;;;;;;;16.98;2.72;;;9.70;99.90;;;;;;4991381;28;20057;-60
2021/09/30 07:05:34;;;;;;;11.93;2.83;;;9.80;99.90;;;;;;4991906;28;20042;-60
2021/09/30 07:08:04;;;;;;;13.65;3.00;;;9.80;99.90;;;;;;4989891;28;20046;-58
2021/09/30 07:10:29;;;;;;;13.93;2.65;;;9.90;99.90;;;;;;4991633;28;20076;-59
2021/09/30 07:12:56;;;;;;;12.27;2.60;;;9.90;99.90;;;;;;4991525;28;20056;-58
2021/09/30 07:15:22;;;;;;;12.20;2.35;;;9.90;99.90;;;;;;4991775;28;20045;-59
2021/09/30 07:17:47;;;;;;;13.82;2.55;;;9.90;99.90;;;;;;4990917;28;20453;-59
2021/09/30 07:20:13;;;;;;;13.85;2.47;;;10.00;99.90;;;;;;4991692;28;20161;-56
2021/09/30 07:22:39;;;;;;;8.80;2.28;;;10.00;99.90;;;;;;4990899;28;20039;-60
2021/09/30 07:25:05;;;;;;;16.02;2.60;;;10.20;99.90;;;;;;4991659;28;20342;-58
2021/09/30 07:27:32;;;;;;;14.50;2.80;;;10.30;99.90;;;;;;4990765;28;20031;-59
2021/09/30 07:29:57;;;;;;;18.58;4.45;;;10.40;99.90;;;;;;4991641;28;20042;-58
2021/09/30 07:32:25;;;;;;;15.65;2.85;;;10.40;99.90;;;;;;4991344;28;20404;-58
2021/09/30 07:34:51;;;;;;;16.42;2.65;;;10.40;99.90;;;;;;4991459;28;20044;-58
2021/09/30 07:37:17;;;;;;;10.02;1.90;;;10.50;99.90;;;;;;4990934;28;20073;-61
2021/09/30 07:39:44;;;;;;;14.25;2.75;;;10.60;99.90;;;;;;4991340;28;20048;-58
2021/09/30 07:42:10;;;;;;;23.90;2.95;;;10.60;99.90;;;;;;4991439;28;20947;-60
2021/09/30 07:44:37;;;;;;;15.25;3.20;;;10.70;99.90;;;;;;4991099;28;20035;-59
2021/09/30 07:47:04;;;;;;;11.43;2.85;;;10.80;99.90;;;;;;4991492;28;20027;-59
2021/09/30 07:49:30;;;;;;;13.85;2.58;;;10.80;99.90;;;;;;4991331;28;20121;-57
2021/09/30 07:51:56;;;;;;;8.30;2.40;;;10.80;99.90;;;;;;4994005;28;20034;-58
2021/09/30 07:54:22;;;;;;;15.23;2.25;;;10.90;99.90;;;;;;4994783;28;20022;-59
2021/09/30 07:56:47;;;;;;;13.77;2.70;;;10.90;99.90;;;;;;4995250;28;20038;-59
2021/09/30 07:59:13;;;;;;;22.05;6.40;;;11.00;99.90;;;;;;4994624;28;20454;-58
2021/09/30 08:01:39;;;;;;;13.40;2.70;;;10.90;99.90;;;;;;4995242;28;20097;-57
2021/09/30 08:04:05;;;;;;;12.38;2.40;;;11.00;99.90;;;;;;4994279;28;20030;-59
2021/09/30 08:06:31;;;;;;;14.98;3.42;;;11.10;99.90;;;;;;4995294;28;20030;-59
2021/09/30 08:08:57;;;;;;;16.30;4.75;;;11.20;99.90;;;;;;4994148;28;20030;-59
2021/09/30 08:11:27;;;;;;;14.77;2.42;;;11.30;99.90;;;;;;4995236;28;20030;-59
2021/09/30 08:13:53;;;;;;;13.65;2.30;;;11.30;99.90;;;;;;4994165;28;20057;-60
2021/09/30 08:16:21;;;;;;;14.55;2.45;;;11.40;99.90;;;;;;4995234;28;20054;-60
2021/09/30 08:18:48;;;;;;;15.50;3.10;;;11.40;99.90;;;;;;4994254;28;20125;-59
2021/09/30 08:21:14;;;;;;;12.80;2.70;;;11.50;99.90;;;;;;4995457;28;20142;-59
2021/09/30 08:23:44;;;;;;;11.43;2.22;;;11.50;99.90;;;;;;4994073;28;20023;-57
2021/09/30 08:26:10;;;;;;;11.20;2.28;;;11.70;99.90;;;;;;4994838;28;20392;-58
2021/09/30 08:28:36;;;;;;;15.60;2.83;;;11.80;99.90;;;;;;4994165;28;20030;-60
2021/09/30 08:31:06;;;;;;;17.30;2.88;;;11.80;99.90;;;;;;4994478;28;20046;-60
2021/09/30 08:33:39;;;;;;;14.77;2.58;;;11.90;99.90;;;;;;4994347;28;20089;-59
2021/09/30 08:36:12;;;;;;;16.42;2.95;;;11.90;99.90;;;;;;4994760;28;20031;-57
2021/09/30 08:38:38;;;;;;;9.70;2.38;;;12.00;99.90;;;;;;4994130;28;20030;-58
2021/09/30 08:41:04;;;;;;;10.75;2.25;;;12.10;99.90;;;;;;4994327;28;20043;-59
2021/09/30 08:43:30;;;;;;;8.55;2.00;;;12.20;99.90;;;;;;4993945;28;20513;-60
2021/09/30 08:45:56;;;;;;;12.88;2.25;;;12.20;99.90;;;;;;4994682;28;20114;-59
2021/09/30 08:48:22;;;;;;;12.07;2.00;;;12.20;99.90;;;;;;4993611;28;20109;-60
2021/09/30 08:50:48;;;;;;;12.60;2.25;;;12.30;99.90;;;;;;4994577;28;20023;-59
2021/09/30 08:53:14;;;;;;;9.27;2.00;;;12.20;99.90;;;;;;4993556;28;20034;-60
2021/09/30 08:55:41;;;;;;;14.57;2.97;;;12.20;99.90;;;;;;4994415;28;20474;-59
2021/09/30 08:58:08;;;;;;;13.10;2.63;;;12.30;99.90;;;;;;4993413;28;20422;-59
2021/09/30 09:00:36;;;;;;;14.48;2.53;;;12.30;99.90;;;;;;4994400;28;20113;-60
2021/09/30 09:03:02;;;;;;;13.93;2.78;;;12.30;99.90;;;;;;4993011;28;20513;-59
2021/09/30 09:05:28;;;;;;;9.07;2.30;;;12.30;99.90;;;;;;4993929;28;20031;-60
2021/09/30 09:07:57;;;;;;;15.70;2.67;;;12.30;99.90;;;;;;4993084;28;20121;-60
2021/09/30 09:10:24;;;;;;;11.95;2.10;;;12.40;99.90;;;;;;4993963;28;20037;-60
2021/09/30 09:13:09;;;;;;;52.72;10.43;;;12.40;99.90;;;;;;4993387;28;20026;-59
2021/09/30 09:15:46;;;;;;;26.55;3.97;;;12.40;99.90;;;;;;4994136;28;20022;-59
2021/09/30 09:18:22;;;;;;;20.10;3.15;;;12.40;99.90;;;;;;4993363;28;20031;-60
2021/09/30 09:21:15;;;;;;;10.73;2.60;;;12.50;99.90;;;;;;4993730;28;20037;-60
2021/09/30 09:23:51;;;;;;;17.58;3.08;;;12.50;99.90;;;;;;4993347;28;20539;-60
2021/09/30 09:26:20;;;;;;;17.63;3.63;;;12.50;99.90;;;;;;4994126;28;20042;-59
2021/09/30 09:29:16;;;;;;;12.13;2.60;;;12.50;99.90;;;;;;4992958;28;20040;-59
2021/09/30 09:31:52;;;;;;;16.77;2.30;;;12.60;99.90;;;;;;4993871;28;20483;-59
2021/09/30 09:34:28;;;;;;;12.13;2.85;;;12.60;99.90;;;;;;4993082;28;20019;-62
2021/09/30 09:37:15;;;;;;;10.25;2.00;;;12.70;99.90;;;;;;4994142;28;20034;-59
2021/09/30 09:39:41;;;;;;;16.60;2.97;;;12.70;99.90;;;;;;4992550;28;20033;-60
2021/09/30 09:42:14;;;;;;;11.27;2.72;;;12.70;99.90;;;;;;4993447;28;20038;-58
2021/09/30 09:44:56;;;;;;;12.90;2.92;;;12.80;99.90;;;;;;4992751;28;20042;-60
2021/09/30 09:47:27;;;;;;;13.73;2.75;;;12.80;99.90;;;;;;4993509;28;20378;-60
2021/09/30 09:50:11;;;;;;;9.50;2.58;;;12.90;99.90;;;;;;4992527;28;20022;-61
2021/09/30 09:52:49;;;;;;;14.43;3.22;;;12.90;99.90;;;;;;4993471;28;20069;-61
2021/09/30 09:55:38;;;;;;;13.50;3.33;;;12.90;99.90;;;;;;4992551;28;20473;-59
2021/09/30 09:58:08;;;;;;;17.17;3.03;;;12.90;99.90;;;;;;4992908;28;20097;-58
2021/09/30 10:00:36;;;;;;;10.50;2.17;;;13.00;99.90;;;;;;4992918;28;20105;-61
2021/09/30 10:03:12;;;;;;;26.75;2.78;;;13.00;99.90;;;;;;4992915;28;20038;-60
2021/09/30 10:05:38;;;;;;;14.57;2.55;;;13.10;99.90;;;;;;4993116;28;20081;-59
2021/09/30 10:08:05;;;;;;;15.02;2.65;;;13.20;99.90;;;;;;4993049;28;20404;-61
2021/09/30 10:10:31;;;;;;;16.35;2.80;;;13.20;99.90;;;;;;4992376;28;20461;-59
2021/09/30 10:12:57;;;;;;;20.80;3.30;;;13.30;99.90;;;;;;4991025;28;20042;-59
2021/09/30 10:15:23;;;;;;;16.13;2.25;;;13.40;99.90;;;;;;4991768;28;20121;-59
2021/09/30 10:17:49;;;;;;;18.17;2.38;;;13.40;99.90;;;;;;4992744;28;20611;-59
2021/09/30 10:20:15;;;;;;;24.58;3.60;;;13.50;99.90;;;;;;4991942;28;20118;-60
2021/09/30 10:22:41;;;;;;;11.60;2.38;;;13.60;99.90;;;;;;4993158;28;20121;-59
2021/09/30 10:25:07;;;;;;;17.92;2.83;;;13.50;99.90;;;;;;4991894;28;20110;-59
2021/09/30 10:27:36;;;;;;;13.57;2.10;;;13.60;99.90;;;;;;4992567;28;20030;-60
2021/09/30 10:30:02;;;;;;;16.38;2.42;;;13.70;99.90;;;;;;4990595;28;20394;-59
2021/09/30 10:32:29;;;;;;;18.23;3.40;;;13.70;99.90;;;;;;4992540;28;20030;-59
2021/09/30 10:35:02;;;;;;;23.63;3.20;;;13.80;99.90;;;;;;4992095;28;20026;-61
2021/09/30 10:37:31;;;;;;;26.35;4.10;;;13.90;99.90;;;;;;4992725;28;20551;-59
2021/09/30 10:40:15;;;;;;;12.05;2.85;;;14.00;99.90;;;;;;4991811;28;20531;-59
2021/09/30 10:42:55;;;;;;;18.63;2.90;;;14.00;99.90;;;;;;4991329;28;20408;-59
2021/09/30 10:45:24;;;;;;;14.95;2.80;;;14.10;99.90;;;;;;4991610;28;20026;-59
2021/09/30 10:47:50;;;;;;;26.88;3.60;;;14.10;99.90;;;;;;4992313;28;20499;-59
2021/09/30 10:50:17;;;;;;;22.75;3.20;;;14.20;99.90;;;;;;4991922;28;20023;-59
2021/09/30 10:52:53;;;;;;;24.35;3.00;;;14.30;99.90;;;;;;4992398;28;20086;-60
2021/09/30 10:55:22;;;;;;;21.25;3.05;;;14.40;99.90;;;;;;4991474;28;20038;-60
2021/09/30 10:57:49;;;;;;;14.15;2.40;;;14.50;99.90;;;;;;4992506;28;20440;-61
2021/09/30 11:00:18;;;;;;;22.90;2.75;;;14.50;99.90;;;;;;4991431;28;20088;-61
2021/09/30 11:03:02;;;;;;;19.00;2.83;;;14.60;99.90;;;;;;4992324;28;20501;-58
2021/09/30 11:05:35;;;;;;;16.00;2.88;;;14.70;99.90;;;;;;4990712;28;20477;-58
2021/09/30 11:08:20;;;;;;;23.55;3.55;;;14.80;99.90;;;;;;4991901;28;20106;-60
2021/09/30 11:11:07;;;;;;;21.95;2.97;;;14.70;99.90;;;;;;4991149;28;20030;-60
2021/09/30 11:13:41;;;;;;;22.50;3.08;;;14.70;99.90;;;;;;4991515;28;20084;-60
2021/09/30 11:16:18;;;;;;;19.40;3.10;;;14.80;99.90;;;;;;4991795;28;20065;-60
2021/09/30 11:18:51;;;;;;;17.35;2.95;;;14.70;99.90;;;;;;4991264;28;20048;-61
2021/09/30 11:21:32;;;;;;;13.60;2.88;;;14.70;99.90;;;;;;4991457;28;20038;-61
2021/09/30 11:24:19;;;;;;;16.58;2.60;;;14.70;99.90;;;;;;4990764;28;20385;-59
2021/09/30 11:26:53;;;;;;;33.53;4.95;;;14.70;99.90;;;;;;4991611;28;20473;-59
2021/09/30 11:29:19;;;;;;;17.50;3.78;;;14.70;99.90;;;;;;4990858;28;20713;-59
2021/09/30 11:31:46;;;;;;;24.45;3.38;;;14.90;99.90;;;;;;4996344;28;20375;-59
2021/09/30 11:34:25;;;;;;;15.80;3.70;;;14.90;99.90;;;;;;5010330;28;20100;-60
2021/09/30 11:36:52;;;;;;;19.40;3.08;;;14.90;99.90;;;;;;5011369;28;20065;-59
2021/09/30 11:39:18;;;;;;;17.38;2.72;;;15.00;99.90;;;;;;4996929;28;20027;-60
2021/09/30 11:41:46;;;;;;;16.27;3.05;;;15.00;99.90;;;;;;4991672;28;20039;-60
2021/09/30 11:44:17;;;;;;;12.93;2.65;;;15.00;99.90;;;;;;4990735;28;20385;-58
2021/09/30 11:46:43;;;;;;;12.73;2.65;;;15.00;99.90;;;;;;4991271;28;20389;-59
2021/09/30 11:49:11;;;;;;;12.45;2.13;;;14.90;99.90;;;;;;4990861;28;20030;-59
2021/09/30 11:51:45;;;;;;;14.52;3.40;;;14.90;99.90;;;;;;4991315;28;20089;-60
2021/09/30 11:54:13;;;;;;;15.25;2.95;;;15.00;99.90;;;;;;4990799;28;20421;-61
2021/09/30 11:56:50;;;;;;;9.75;3.17;;;15.00;99.90;;;;;;4991365;28;20034;-59
2021/09/30 11:59:19;;;;;;;14.00;2.70;;;15.00;99.90;;;;;;4990883;28;20026;-59
2021/09/30 12:01:49;;;;;;;17.35;3.20;;;15.00;99.90;;;;;;4991279;28;20125;-61
2021/09/30 12:04:43;;;;;;;13.05;3.25;;;15.00;99.90;;;;;;4990889;28;20114;-60
2021/09/30 12:07:24;;;;;;;19.05;2.97;;;15.10;99.90;;;;;;4991417;28;20045;-59
2021/09/30 12:09:57;;;;;;;16.48;2.72;;;15.10;99.90;;;;;;4990676;28;20153;-60
2021/09/30 12:12:31;;;;;;;18.27;3.72;;;15.20;99.90;;;;;;4991594;28;20030;-59
2021/09/30 12:14:57;;;;;;;17.48;2.45;;;15.20;99.90;;;;;;4990879;28;20030;-60
2021/09/30 12:17:28;;;;;;;17.48;3.03;;;15.20;99.90;;;;;;4991172;28;20084;-61
2021/09/30 12:19:54;;;;;;;23.45;3.42;;;15.30;99.90;;;;;;4990996;28;20022;-61
2021/09/30 12:22:25;;;;;;;29.08;3.95;;;15.50;99.90;;;;;;4991431;28;20026;-60
2021/09/30 12:24:57;;;;;;;23.08;2.72;;;15.60;99.90;;;;;;4990709;28;20101;-59
2021/09/30 12:27:29;;;;;;;17.67;2.67;;;15.70;99.90;;;;;;4991162;28;20034;-61
2021/09/30 12:30:02;;;;;;;17.65;3.00;;;15.80;99.90;;;;;;4990345;28;20385;-59
2021/09/30 12:32:33;;;;;;;20.45;2.50;;;15.90;99.90;;;;;;4991035;28;20026;-58
2021/09/30 12:35:07;;;;;;;20.27;2.45;;;15.90;99.90;;;;;;4990603;28;20030;-59
2021/09/30 12:37:37;;;;;;;14.50;2.42;;;15.90;99.90;;;;;;4993394;28;20160;-60
2021/09/30 12:40:05;;;;;;;11.65;2.35;;;16.00;99.90;;;;;;4994065;28;20080;-59
2021/09/30 12:42:32;;;;;;;11.60;2.20;;;16.10;99.90;;;;;;4994777;28;20075;-60
2021/09/30 12:44:58;;;;;;;12.90;3.22;;;16.10;99.90;;;;;;4993934;28;20401;-60
2021/09/30 12:47:38;;;;;;;17.48;2.85;;;16.20;99.90;;;;;;4994649;28;20507;-60
2021/09/30 12:50:16;;;;;;;13.90;2.90;;;16.20;99.90;;;;;;4993944;28;20077;-61
2021/09/30 12:52:44;;;;;;;18.48;3.50;;;16.30;99.90;;;;;;4994751;28;20084;-59
2021/09/30 12:55:18;;;;;;;17.50;2.83;;;16.30;99.90;;;;;;4993555;28;20081;-62
2021/09/30 12:57:44;;;;;;;33.50;4.78;;;16.40;99.90;;;;;;4994609;28;20096;-58
2021/09/30 13:00:15;;;;;;;20.60;3.58;;;16.50;99.90;;;;;;4993312;28;20031;-60
2021/09/30 13:02:41;;;;;;;16.42;2.78;;;16.50;99.90;;;;;;4994312;28;20053;-60
2021/09/30 13:05:09;;;;;;;13.77;2.97;;;16.50;99.90;;;;;;4993461;28;20030;-58
2021/09/30 13:07:57;;;;;;;14.15;3.53;;;16.60;99.90;;;;;;4994556;28;20034;-59
2021/09/30 13:10:30;;;;;;;17.05;2.95;;;16.60;99.90;;;;;;4993441;28;20031;-59
2021/09/30 13:13:14;;;;;;;24.33;3.80;;;16.70;99.90;;;;;;4994540;28;20036;-60
2021/09/30 13:15:45;;;;;;;22.00;3.10;;;16.70;99.90;;;;;;4993086;28;20081;-60
2021/09/30 13:18:16;;;;;;;19.20;2.50;;;16.70;99.90;;;;;;4992980;28;20119;-60
2021/09/30 13:21:04;;;;;;;14.82;3.30;;;16.70;99.90;;;;;;4993257;28;20502;-58
2021/09/30 13:23:30;;;;;;;16.40;2.83;;;16.70;99.90;;;;;;4993889;28;20045;-59
2021/09/30 13:25:56;;;;;;;16.95;3.30;;;16.70;99.90;;;;;;4992852;28;20026;-59
2021/09/30 13:28:21;;;;;;;26.05;3.70;;;16.70;99.90;;;;;;4994282;28;20070;-59
2021/09/30 13:30:47;;;;;;;20.45;2.85;;;16.70;99.90;;;;;;4992691;28;20078;-61
2021/09/30 13:33:14;;;;;;;18.80;3.72;;;16.80;99.90;;;;;;4994068;28;20022;-60
2021/09/30 13:35:40;;;;;;;16.63;3.20;;;16.90;99.90;;;;;;4992960;28;20023;-59
2021/09/30 13:38:06;;;;;;;13.57;2.72;;;16.80;99.90;;;;;;4993867;28;20058;-59
2021/09/30 13:40:33;;;;;;;10.95;2.88;;;16.80;99.90;;;;;;4992997;28;20378;-59
2021/09/30 13:43:01;;;;;;;14.13;2.70;;;16.80;99.90;;;;;;4992331;28;20104;-60
2021/09/30 13:45:27;;;;;;;16.23;2.80;;;16.80;99.90;;;;;;4992769;28;20026;-60
2021/09/30 13:47:53;;;;;;;12.68;2.40;;;16.70;99.90;;;;;;4991964;28;20397;-60
2021/09/30 13:50:21;;;;;;;20.35;2.88;;;16.70;99.90;;;;;;4992813;28;20390;-61
2021/09/30 13:52:49;;;;;;;15.23;2.85;;;16.70;99.90;;;;;;4993477;28;20388;-61
2021/09/30 13:55:16;;;;;;;12.07;2.75;;;16.60;99.90;;;;;;4991103;28;20456;-61
2021/09/30 13:57:42;;;;;;;13.90;2.50;;;16.60;99.90;;;;;;4993569;28;20026;-61
2021/09/30 14:00:10;;;;;;;16.80;2.58;;;16.70;99.90;;;;;;4992230;28;20041;-62
2021/09/30 14:02:38;;;;;;;14.82;2.70;;;16.70;99.90;;;;;;4993091;28;20093;-60
2021/09/30 14:05:06;;;;;;;12.15;2.42;;;16.80;99.90;;;;;;4992477;28;20030;-62
2021/09/30 14:07:35;;;;;;;11.27;2.33;;;16.90;99.90;;;;;;4993259;28;20447;-58
2021/09/30 14:10:01;;;;;;;10.55;2.78;;;16.90;99.90;;;;;;4992417;28;20041;-59
2021/09/30 14:12:27;;;;;;;15.60;2.85;;;16.90;99.90;;;;;;4992858;28;20110;-59
2021/09/30 14:14:53;;;;;;;16.30;2.95;;;16.80;99.90;;;;;;4992451;28;20110;-60
2021/09/30 14:17:19;;;;;;;8.98;2.38;;;16.80;99.90;;;;;;4992762;28;20087;-59
2021/09/30 14:19:44;;;;;;;13.25;2.47;;;16.70;99.90;;;;;;4992829;28;20034;-60
2021/09/30 14:22:10;;;;;;;8.77;2.15;;;16.60;99.90;;;;;;4992118;28;20069;-61
2021/09/30 14:24:36;;;;;;;14.55;2.42;;;16.50;99.90;;;;;;4992890;28;20035;-61
2021/09/30 14:27:03;;;;;;;12.07;2.30;;;16.50;99.90;;;;;;4991780;28;20030;-60
2021/09/30 14:29:29;;;;;;;11.60;2.70;;;16.40;99.90;;;;;;4992525;28;20037;-60
2021/09/30 14:31:55;;;;;;;9.15;2.17;;;16.40;99.90;;;;;;4992029;28;20072;-59
2021/09/30 14:34:21;;;;;;;17.65;3.63;;;16.40;99.90;;;;;;4992467;28;20023;-59
2021/09/30 14:36:47;;;;;;;17.38;2.85;;;16.40;99.90;;;;;;4991759;28;20022;-59
2021/09/30 14:39:13;;;;;;;13.57;2.70;;;16.40;99.90;;;;;;4992625;28;20038;-59
2021/09/30 14:41:38;;;;;;;12.45;2.40;;;16.40;99.90;;;;;;4991355;28;20041;-59
2021/09/30 14:44:05;;;;;;;12.23;2.50;;;16.50;99.90;;;;;;4992326;28;20106;-61
2021/09/30 14:46:31;;;;;;;14.52;2.95;;;16.50;99.90;;;;;;4991194;28;20388;-58
2021/09/30 14:48:56;;;;;;;19.55;3.17;;;16.50;99.90;;;;;;4992372;28;20041;-58
2021/09/30 14:51:22;;;;;;;13.50;2.58;;;16.40;99.90;;;;;;4991488;28;20590;-59
2021/09/30 14:53:48;;;;;;;15.40;3.10;;;16.30;99.90;;;;;;4992112;28;20031;-59
2021/09/30 14:56:14;;;;;;;27.90;3.58;;;16.30;99.90;;;;;;4991355;28;20030;-59
2021/09/30 14:58:39;;;;;;;16.50;4.80;;;16.30;99.90;;;;;;4992174;28;20041;-59
2021/09/30 15:01:06;;;;;;;15.45;2.97;;;16.30;99.90;;;;;;4990687;28;20034;-60
2021/09/30 15:03:32;;;;;;;9.70;2.35;;;16.30;99.90;;;;;;4992076;28;20428;-59
2021/09/30 15:05:58;;;;;;;8.93;2.20;;;16.30;99.90;;;;;;4991294;28;20030;-58
2021/09/30 15:08:24;;;;;;;11.43;2.22;;;16.30;99.90;;;;;;4992101;28;20069;-59
2021/09/30 15:10:49;;;;;;;13.23;2.45;;;16.20;99.90;;;;;;4991124;28;20026;-59
2021/09/30 15:13:15;;;;;;;17.17;2.47;;;16.20;99.90;;;;;;4991811;28;20461;-58
2021/09/30 15:15:41;;;;;;;12.30;2.60;;;16.30;99.90;;;;;;4990761;28;20058;-59
2021/09/30 15:18:09;;;;;;;9.52;2.22;;;16.30;99.90;;;;;;4991877;28;20077;-60
2021/09/30 15:23:15;;;;;;;10.98;3.20;;;16.30;99.90;;;;;;4991828;28;20109;-60
2021/09/30 15:25:43;;;;;;;10.77;2.38;;;16.30;99.90;;;;;;4990918;28;20018;-59
2021/09/30 15:28:14;;;;;;;11.80;2.20;;;16.30;99.90;;;;;;4991682;28;20485;-61
2021/09/30 15:30:40;;;;;;;15.95;2.70;;;16.30;99.90;;;;;;4990712;28;20104;-60
2021/09/30 15:33:09;;;;;;;12.57;2.25;;;16.20;99.90;;;;;;4991692;28;20034;-60
2021/09/30 15:35:34;;;;;;;12.88;2.63;;;16.20;99.90;;;;;;4990919;28;20030;-60
2021/09/30 15:38:00;;;;;;;13.82;2.17;;;16.20;99.90;;;;;;4991419;28;20091;-59
2021/09/30 15:40:26;;;;;;;14.88;6.40;;;16.10;99.90;;;;;;4991108;28;20034;-61
2021/09/30 15:42:51;;;;;;;13.27;2.50;;;16.10;99.90;;;;;;4991301;28;20393;-59
2021/09/30 15:45:19;;;;;;;12.60;3.03;;;16.00;99.90;;;;;;4991762;28;20030;-59
2021/09/30 15:47:45;;;;;;;10.15;2.30;;;15.90;99.90;;;;;;4991161;28;20035;-60